Time;durP1;ratioP1;P1;durP2;ratioP2;P2;SDS_P1;SDS_P2;PMS_P1;PMS_P2;Temp;Humidity;BMP_temperature;BMP_pressure;BME280_temperature;BME280_humidity;BME280_pressure;Samples;Min_cycle;Max_cycle;Signal;HPM_P1;HPM_P2
2023/01/03 14:46:52;;;;;;;2.37;0.80;;;;;;;8.38;100.00;97404.22;4953565;29;20051;-90
2023/01/03 14:49:31;;;;;;;5.47;1.13;;;;;;;8.15;100.00;97407.69;4937772;29;20103;-92
2023/01/03 14:52:07;;;;;;;1.90;0.90;;;;;;;8.11;100.00;97411.50;4930940;29;20071;-93
2023/01/03 14:54:35;;;;;;;2.43;1.00;;;;;;;8.04;100.00;97416.38;4919196;29;20039;-94
2023/01/03 14:57:03;;;;;;;1.93;0.83;;;;;;;7.94;100.00;97418.00;4914029;29;20099;-93
2023/01/03 14:59:31;;;;;;;2.33;0.90;;;;;;;8.02;100.00;97428.75;4927622;29;20023;-93
2023/01/03 15:02:08;;;;;;;3.00;1.10;;;;;;;7.87;100.00;97422.03;4926659;29;20070;-93
2023/01/03 15:04:42;;;;;;;2.03;0.90;;;;;;;7.75;100.00;97423.78;4941980;29;20129;-93
2023/01/03 15:07:31;;;;;;;3.23;1.43;;;;;;;7.75;100.00;97431.63;4926520;29;20039;-93
2023/01/03 15:10:20;;;;;;;2.70;1.00;;;;;;;7.65;100.00;97431.47;4908319;29;20047;-93
2023/01/03 15:12:53;;;;;;;4.50;1.23;;;;;;;7.60;100.00;97433.56;4907780;29;20092;-93
2023/01/03 15:15:23;;;;;;;2.13;0.80;;;;;;;7.54;100.00;97429.63;4907345;29;20027;-92
2023/01/03 15:17:53;;;;;;;4.00;1.47;;;;;;;7.50;100.00;97435.19;4908788;29;20486;-93
2023/01/03 15:20:26;;;;;;;4.47;1.80;;;;;;;7.42;100.00;97434.91;4918464;29;20063;-93
2023/01/03 15:22:54;;;;;;;5.70;2.80;;;;;;;7.30;100.00;97437.44;4924757;29;20177;-93
2023/01/03 15:26:00;;;;;;;8.60;3.40;;;;;;;7.24;100.00;97435.28;4916910;29;20054;-93
2023/01/03 15:28:34;;;;;;;9.73;4.77;;;;;;;7.20;100.00;97436.44;4907013;29;20039;-93
2023/01/03 15:31:44;;;;;;;7.50;3.60;;;;;;;7.12;100.00;97444.00;4906727;29;20038;-93
2023/01/03 15:34:18;;;;;;;9.70;4.20;;;;;;;7.02;100.00;97442.97;4922951;29;20046;-93
2023/01/03 15:36:50;;;;;;;9.73;6.40;;;;;;;7.00;100.00;97443.06;4924522;29;20042;-96
2023/01/03 15:39:19;;;;;;;10.13;6.00;;;;;;;6.94;100.00;97445.25;4932114;29;20049;-95
2023/01/03 15:44:38;;;;;;;15.53;8.10;;;;;;;6.75;100.00;97446.56;4915304;29;20631;-89
2023/01/03 15:47:09;;;;;;;23.02;11.35;;;;;;;6.64;100.00;97450.84;4909236;29;20128;-89
2023/01/03 15:49:52;;;;;;;24.70;13.10;;;;;;;6.65;100.00;97460.38;4924736;28;20055;-89
2023/01/03 15:52:18;;;;;;;22.33;11.85;;;;;;;6.51;100.00;97459.53;4909776;29;20105;-89
2023/01/03 15:54:44;;;;;;;27.47;16.17;;;;;;;6.43;100.00;97468.81;4903709;29;20040;-89
2023/01/03 15:57:19;;;;;;;31.53;18.77;;;;;;;6.41;100.00;97462.88;4901692;29;20050;-89
2023/01/03 15:59:53;;;;;;;22.07;14.87;;;;;;;6.38;100.00;97463.91;4917564;29;20039;-89
2023/01/03 16:02:25;;;;;;;21.50;13.67;;;;;;;6.36;100.00;97461.38;4908109;29;20039;-89
2023/01/03 16:04:59;;;;;;;34.77;17.87;;;;;;;6.23;100.00;97465.75;4910301;29;20032;-89
2023/01/03 16:07:29;;;;;;;21.57;11.87;;;;;;;6.20;100.00;97465.13;4920985;29;20062;-89
2023/01/03 16:10:12;;;;;;;14.47;8.80;;;;;;;6.11;100.00;97466.59;4903705;29;20087;-89
2023/01/03 16:12:42;;;;;;;17.33;10.27;;;;;;;6.06;100.00;97473.88;4904055;29;20121;-89
2023/01/03 16:15:17;;;;;;;16.57;10.03;;;;;;;6.05;100.00;97480.03;4905179;29;20046;-88
2023/01/03 16:17:43;;;;;;;12.57;7.90;;;;;;;5.92;100.00;97479.97;4918006;28;20028;-89
2023/01/03 16:20:13;;;;;;;18.87;11.60;;;;;;;5.85;100.00;97483.91;4917809;29;20027;-89
2023/01/03 16:22:43;;;;;;;45.50;23.97;;;;;;;5.86;100.00;97478.56;4907700;29;20059;-89
2023/01/03 16:25:14;;;;;;;29.17;19.47;;;;;;;5.74;100.00;97484.63;4928145;29;20027;-90
2023/01/03 16:27:39;;;;;;;24.87;15.63;;;;;;;5.75;100.00;97488.06;4905753;29;20537;-89
2023/01/03 16:30:12;;;;;;;41.77;27.10;;;;;;;5.64;100.00;97488.75;4913574;29;20118;-90
2023/01/03 16:32:38;;;;;;;53.37;26.60;;;;;;;5.48;100.00;97498.47;4900837;29;20122;-88
2023/01/03 16:35:19;;;;;;;24.80;15.90;;;;;;;5.13;100.00;97498.88;4920200;29;20071;-89
2023/01/03 16:37:46;;;;;;;28.17;20.87;;;;;;;5.57;100.00;97508.34;4903548;29;20106;-86
2023/01/03 16:40:14;;;;;;;33.87;22.27;;;;;;;5.54;100.00;97505.91;4909180;29;20541;-89
2023/01/03 16:42:40;;;;;;;21.03;14.97;;;;;;;5.54;100.00;97511.13;4906168;29;20536;-91
2023/01/03 16:45:06;;;;;;;30.93;19.33;;;;;;;5.28;100.00;97518.81;4915612;29;20031;-87
2023/01/03 16:47:34;;;;;;;28.43;17.47;;;;;;;5.55;100.00;97516.25;4917000;29;20029;-89
2023/01/03 16:50:05;;;;;;;25.27;17.40;;;;;;;5.35;100.00;97516.66;4907238;29;20063;-87
2023/01/03 16:52:42;;;;;;;16.73;12.00;;;;;;;5.30;100.00;97522.19;4925189;29;20126;-84
2023/01/03 16:55:25;;;;;;;19.23;10.60;;;;;;;5.20;100.00;97516.69;4910750;29;20050;-84
2023/01/03 16:57:51;;;;;;;12.88;7.93;;;;;;;5.20;100.00;97523.69;4922245;29;20045;-85
2023/01/03 17:00:49;;;;;;;17.43;10.30;;;;;;;5.12;100.00;97520.69;4905711;29;20490;-89
2023/01/03 17:04:14;;;;;;;16.23;9.83;;;;;;;5.02;100.00;97525.63;4931402;29;20055;-88
2023/01/03 17:06:48;;;;;;;36.10;25.47;;;;;;;4.96;100.00;97520.78;4910560;29;20043;-86
2023/01/03 17:09:35;;;;;;;19.37;14.37;;;;;;;4.89;100.00;97525.50;4949932;29;20039;-86
2023/01/03 17:12:03;;;;;;;19.00;14.23;;;;;;;4.78;100.00;97524.50;4896123;29;20039;-86
2023/01/03 17:14:48;;;;;;;20.37;13.83;;;;;;;4.76;100.00;97523.72;4915008;29;20959;-86
2023/01/03 17:17:19;;;;;;;20.97;13.97;;;;;;;4.66;100.00;97526.91;4915702;29;20035;-86
2023/01/03 17:19:45;;;;;;;16.70;11.70;;;;;;;4.59;100.00;97525.56;4911239;29;20031;-86
2023/01/03 17:22:14;;;;;;;18.47;10.53;;;;;;;4.56;100.00;97527.53;4919080;29;20070;-85
2023/01/03 17:24:55;;;;;;;12.30;8.10;;;;;;;4.44;100.00;97531.69;4900987;29;20114;-85
2023/01/03 17:27:24;;;;;;;10.80;6.00;;;;;;;4.51;100.00;97537.38;4910803;29;20047;-88
2023/01/03 17:30:00;;;;;;;11.90;6.90;;;;;;;4.37;100.00;97536.41;4906989;29;20031;-90
2023/01/03 17:32:26;;;;;;;11.67;5.47;;;;;;;4.32;100.00;97540.22;4918627;29;20039;-86
2023/01/03 17:34:51;;;;;;;18.63;6.47;;;;;;;4.21;100.00;97538.22;4927100;29;20024;-86
2023/01/03 17:37:35;;;;;;;10.83;6.43;;;;;;;4.12;100.00;97541.34;4924343;29;20127;-90
2023/01/03 17:40:02;;;;;;;10.68;5.88;;;;;;;4.05;100.00;97535.66;4887669;29;20041;-87
2023/01/03 17:42:28;;;;;;;12.83;5.57;;;;;;;3.96;100.00;97542.22;4909873;29;20050;-88
2023/01/03 17:50:28;;;;;;;16.27;6.23;;;;;;;3.81;100.00;97537.03;4923113;29;20059;-89
2023/01/03 17:52:54;;;;;;;13.30;5.80;;;;;;;3.78;100.00;97538.88;4915814;29;20042;-89
2023/01/03 17:55:24;;;;;;;9.13;4.63;;;;;;;3.72;100.00;97547.03;4923999;29;20055;-89
2023/01/03 17:57:50;;;;;;;7.37;3.93;;;;;;;3.75;100.00;97543.41;4919802;29;20039;-88
2023/01/03 18:00:17;;;;;;;7.20;4.13;;;;;;;3.63;100.00;97546.72;4914513;29;20062;-91
2023/01/03 18:02:47;;;;;;;10.83;5.20;;;;;;;3.61;100.00;97545.94;4924032;29;20032;-87
2023/01/03 18:05:19;;;;;;;12.20;6.57;;;;;;;3.58;100.00;97551.31;4910282;29;20046;-89
2023/01/03 18:07:45;;;;;;;14.63;6.80;;;;;;;3.54;100.00;97550.63;4928733;29;20111;-90
2023/01/03 18:18:46;;;;;;;13.37;5.73;;;;;;;3.44;100.00;97546.84;4931637;29;20077;-88
2023/01/03 18:21:54;;;;;;;9.70;4.90;;;;;;;3.43;100.00;97546.03;4896714;29;20051;-89
2023/01/03 18:25:30;;;;;;;11.13;5.17;;;;;;;3.35;100.00;97542.97;4918242;29;20044;-89
2023/01/03 18:32:40;;;;;;;16.27;8.10;;;;;;;3.05;100.00;97533.31;4841355;29;20110;-93
2023/01/03 18:35:16;;;;;;;17.80;9.88;;;;;;;3.11;100.00;97533.91;4838247;29;20069;-87
2023/01/03 18:37:45;;;;;;;15.73;7.60;;;;;;;3.13;100.00;97530.31;4827075;29;20050;-86
2023/01/03 18:40:19;;;;;;;14.20;6.90;;;;;;;3.12;100.00;97525.19;4830966;29;20045;-89
2023/01/03 18:45:36;;;;;;;17.23;7.13;;;;;;;3.02;100.00;97523.09;4944683;29;20040;-86
2023/01/03 18:48:03;;;;;;;12.83;5.47;;;;;;;2.97;100.00;97525.06;4905296;29;20040;-86
2023/01/03 18:51:01;;;;;;;10.33;5.63;;;;;;;2.97;100.00;97538.06;4913481;29;20059;-86
2023/01/03 18:53:31;;;;;;;11.40;5.47;;;;;;;3.05;100.00;97529.84;4911925;29;20027;-87
2023/01/03 18:55:58;;;;;;;11.83;5.67;;;;;;;3.01;100.00;97531.78;4895371;29;20056;-86
2023/01/03 18:58:34;;;;;;;10.47;4.83;;;;;;;2.92;100.00;97524.50;4920093;29;20246;-86
2023/01/03 19:01:00;;;;;;;10.33;4.70;;;;;;;2.90;100.00;97528.91;4903868;29;20040;-87
2023/01/03 19:03:30;;;;;;;8.07;4.87;;;;;;;2.94;100.00;97534.78;4924741;29;20031;-86
2023/01/03 19:05:58;;;;;;;10.00;5.23;;;;;;;2.86;100.00;97536.97;4908840;29;20048;-86
2023/01/03 19:08:28;;;;;;;9.03;5.10;;;;;;;2.89;100.00;97535.03;4900433;29;20023;-86
2023/01/03 19:11:06;;;;;;;10.23;6.10;;;;;;;2.81;100.00;97539.78;4903905;29;20056;-87
2023/01/03 19:14:01;;;;;;;;;;;;;;;;;;;;;
2023/01/03 19:16:37;;;;;;;10.70;6.60;;;;;;;2.73;100.00;97541.94;4902745;29;20040;-86
2023/01/03 19:23:10;;;;;;;12.70;7.87;;;;;;;2.63;100.00;97541.56;4927324;29;20047;-86
2023/01/03 19:25:38;;;;;;;10.77;6.67;;;;;;;2.61;100.00;97546.00;4900152;29;20036;-86
2023/01/03 19:28:55;;;;;;;13.40;7.63;;;;;;;2.60;100.00;97545.16;4923625;29;20058;-86
2023/01/03 19:31:55;;;;;;;13.37;6.77;;;;;;;2.55;100.00;97549.75;4916776;29;20403;-86
2023/01/03 19:34:24;;;;;;;11.50;6.47;;;;;;;2.53;100.00;97546.38;4902087;29;20035;-86
2023/01/03 19:36:51;;;;;;;12.13;6.67;;;;;;;2.58;100.00;97546.16;4918112;29;20426;-87
2023/01/03 19:39:17;;;;;;;10.93;7.00;;;;;;;2.66;100.00;97545.78;4898547;29;20032;-85
2023/01/03 19:44:32;;;;;;;10.30;6.83;;;;;;;2.60;100.00;97552.94;4925622;29;20042;-85
2023/01/03 19:46:58;;;;;;;12.93;7.60;;;;;;;2.61;100.00;97556.38;4901249;29;20518;-86
2023/01/03 19:49:24;;;;;;;12.67;7.67;;;;;;;2.54;100.00;97547.22;4903555;29;20181;-86
2023/01/03 19:51:51;;;;;;;11.90;7.33;;;;;;;2.50;100.00;97551.72;4918561;29;20051;-86
2023/01/03 19:54:23;;;;;;;12.20;7.97;;;;;;;2.57;100.00;97558.28;4921623;29;20920;-86
2023/01/03 19:56:58;;;;;;;18.07;9.07;;;;;;;2.59;100.00;97556.47;4910048;29;20020;-86
2023/01/03 19:59:59;;;;;;;22.07;12.27;;;;;;;2.66;100.00;97553.56;4936069;29;20055;-86
2023/01/03 20:02:31;;;;;;;21.87;13.47;;;;;;;2.62;100.00;97539.06;4911298;29;20028;-86
2023/01/03 20:05:12;;;;;;;24.03;14.03;;;;;;;2.66;100.00;97545.78;4908344;29;20056;-86
2023/01/03 20:07:40;;;;;;;21.30;11.87;;;;;;;2.66;100.00;97556.16;4903732;29;20028;-86
2023/01/03 20:10:06;;;;;;;19.20;11.40;;;;;;;2.67;100.00;97547.44;4921384;29;20065;-85
2023/01/03 20:12:34;;;;;;;16.27;9.83;;;;;;;2.65;100.00;97562.25;4912894;29;20037;-86
2023/01/03 20:15:00;;;;;;;14.73;9.53;;;;;;;2.70;100.00;97555.09;4910351;29;20103;-86
2023/01/03 20:17:26;;;;;;;15.80;10.90;;;;;;;2.71;100.00;97548.97;4897845;29;20123;-86
2023/01/03 20:19:55;;;;;;;15.77;9.93;;;;;;;2.68;100.00;97543.91;4915331;29;20047;-86
2023/01/03 20:22:23;;;;;;;16.30;10.23;;;;;;;2.69;100.00;97535.22;4911891;29;20039;-86
2023/01/03 20:24:51;;;;;;;21.13;12.20;;;;;;;2.67;100.00;97534.47;4905011;29;20051;-85
2023/01/03 20:27:31;;;;;;;16.73;11.43;;;;;;;2.67;100.00;97537.88;4909047;29;20146;-86
2023/01/03 20:30:01;;;;;;;16.13;10.00;;;;;;;2.64;100.00;97547.59;4900586;29;20032;-86
2023/01/03 20:32:28;;;;;;;16.17;10.47;;;;;;;2.48;100.00;97545.78;4901448;29;20040;-86
2023/01/03 20:34:54;;;;;;;16.30;10.80;;;;;;;2.39;100.00;97543.66;4923061;29;20122;-86
2023/01/03 20:37:21;;;;;;;16.17;9.93;;;;;;;2.13;100.00;97544.94;4908964;29;20122;-86
2023/01/03 20:39:46;;;;;;;15.23;10.10;;;;;;;2.15;100.00;97548.31;4903967;29;20119;-86
2023/01/03 20:42:21;;;;;;;17.33;10.80;;;;;;;2.15;100.00;97539.66;4925067;29;20461;-85
2023/01/03 20:44:47;;;;;;;15.37;10.53;;;;;;;2.16;100.00;97538.75;4901795;29;20044;-87
2023/01/03 20:47:22;;;;;;;18.67;12.13;;;;;;;2.18;100.00;97534.31;4902835;29;20135;-85
2023/01/03 20:49:50;;;;;;;16.77;10.97;;;;;;;2.12;100.00;97531.13;4899581;29;20031;-86
